createdAt,value
2018-11-13T00:00:15.281Z,3.37
2018-11-13T00:02:44.206Z,4.70
2018-11-13T00:05:13.014Z,3.17
2018-11-13T00:07:42.297Z,4.43
2018-11-13T00:10:11.588Z,2.70
2018-11-13T00:12:40.673Z,2.47
2018-11-13T00:15:09.486Z,2.77
2018-11-13T00:17:38.558Z,2.83
2018-11-13T00:20:09.302Z,5.63
2018-11-13T00:22:37.998Z,3.97
2018-11-13T00:25:07.554Z,2.10
2018-11-13T00:27:36.317Z,2.40
2018-11-13T00:30:06.958Z,3.00
2018-11-13T00:32:35.761Z,3.67
2018-11-13T00:35:04.619Z,3.00
2018-11-13T00:37:33.459Z,2.40
2018-11-13T00:40:02.287Z,3.63
2018-11-13T00:42:31.159Z,3.53
2018-11-13T00:44:59.977Z,2.53
2018-11-13T00:47:28.878Z,3.60
2018-11-13T00:49:57.747Z,4.93
2018-11-13T00:52:26.554Z,4.33
2018-11-13T00:54:55.456Z,4.57
2018-11-13T00:57:24.294Z,5.60
2018-11-13T00:59:53.851Z,6.90
2018-11-13T01:02:22.667Z,6.33
2018-11-13T01:04:51.510Z,8.00
2018-11-13T01:07:20.348Z,6.03
2018-11-13T01:09:49.160Z,7.33
2018-11-13T01:12:17.974Z,7.63
2018-11-13T01:14:46.842Z,6.70
2018-11-13T01:17:15.690Z,7.33
2018-11-13T01:19:44.502Z,9.10
2018-11-13T01:22:13.323Z,6.17
2018-11-13T01:24:42.170Z,5.50
2018-11-13T01:27:10.998Z,5.40
2018-11-13T01:29:39.814Z,5.57
2018-11-13T01:32:08.636Z,5.67
2018-11-13T01:34:37.455Z,5.20
2018-11-13T01:37:06.315Z,6.93
2018-11-13T01:39:35.153Z,6.23
2018-11-13T01:42:03.978Z,4.73
2018-11-13T01:44:32.792Z,8.80
2018-11-13T01:47:01.622Z,7.57
2018-11-13T01:49:30.487Z,7.17
2018-11-13T01:51:59.274Z,7.33
2018-11-13T01:54:28.177Z,6.80
2018-11-13T01:56:56.960Z,8.60
2018-11-13T01:59:25.778Z,7.57
2018-11-13T02:01:54.618Z,6.07
2018-11-13T02:04:23.454Z,7.27
2018-11-13T02:06:52.276Z,11.50
2018-11-13T02:09:21.171Z,11.53
2018-11-13T02:11:50.642Z,6.23
2018-11-13T02:14:19.504Z,7.17
2018-11-13T02:16:48.368Z,6.60
2018-11-13T02:19:17.226Z,8.30
2018-11-13T02:21:46.127Z,7.47
2018-11-13T02:24:14.969Z,7.90
2018-11-13T02:26:43.841Z,8.13
2018-11-13T02:29:12.676Z,9.80
2018-11-13T02:31:41.510Z,7.03
2018-11-13T02:34:10.390Z,6.03
2018-11-13T02:36:39.227Z,8.83
2018-11-13T02:39:09.021Z,4.93
2018-11-13T02:41:37.873Z,4.90
2018-11-13T02:44:07.278Z,7.17
2018-11-13T02:46:36.114Z,8.33
2018-11-13T02:49:05.078Z,9.10
2018-11-13T02:51:34.589Z,6.17
2018-11-13T02:54:03.465Z,4.80
2018-11-13T02:56:33.211Z,6.87
2018-11-13T02:59:02.186Z,5.87
2018-11-13T03:04:22.090Z,4.93
2018-11-13T03:06:50.801Z,7.63
2018-11-13T03:09:19.540Z,7.30
2018-11-13T03:11:48.269Z,6.17
2018-11-13T03:14:16.981Z,7.93
2018-11-13T03:16:45.704Z,8.80
2018-11-13T03:19:14.418Z,9.87
2018-11-13T03:21:43.134Z,8.17
2018-11-13T03:24:11.857Z,9.67
2018-11-13T03:26:40.586Z,10.07
2018-11-13T03:29:09.318Z,9.97
2018-11-13T03:31:38.112Z,8.73
2018-11-13T03:34:06.937Z,9.40
2018-11-13T03:36:35.658Z,7.07
2018-11-13T03:39:06.621Z,5.70
2018-11-13T03:41:35.357Z,9.70
2018-11-13T03:44:04.069Z,8.30
2018-11-13T03:46:32.765Z,9.33
2018-11-13T03:49:01.462Z,6.57
2018-11-13T03:51:30.157Z,6.93
2018-11-13T03:53:58.871Z,6.67
2018-11-13T03:56:27.566Z,7.33
2018-11-13T03:58:56.257Z,6.77
2018-11-13T04:01:24.934Z,6.93
2018-11-13T04:03:53.629Z,5.07
2018-11-13T04:06:22.309Z,5.37
2018-11-13T04:08:50.994Z,3.10
2018-11-13T04:11:19.689Z,2.70
2018-11-13T04:13:48.394Z,2.90
2018-11-13T04:23:21.665Z,2.33
2018-11-13T04:25:50.374Z,2.53
2018-11-13T04:28:19.102Z,4.53
2018-11-13T04:30:47.835Z,4.20
2018-11-13T04:33:16.482Z,6.33
2018-11-13T04:35:45.187Z,4.93
2018-11-13T04:38:13.870Z,5.13
2018-11-13T04:40:42.545Z,6.10
2018-11-13T04:43:11.237Z,4.33
2018-11-13T04:45:39.925Z,3.43
2018-11-13T04:48:08.613Z,3.17
2018-11-13T04:50:37.318Z,4.07
2018-11-13T04:53:06.028Z,3.40
2018-11-13T04:55:34.722Z,3.00
2018-11-13T04:58:03.413Z,2.80
2018-11-13T05:00:32.116Z,3.40
2018-11-13T05:03:00.862Z,2.67
2018-11-13T05:05:29.485Z,1.67
2018-11-13T05:07:58.170Z,2.10
2018-11-13T05:10:26.858Z,2.07
2018-11-13T05:18:38.106Z,4.47
2018-11-13T05:21:06.797Z,2.17
2018-11-13T05:23:35.481Z,2.20
2018-11-13T05:26:04.283Z,2.37
2018-11-13T05:28:33.058Z,2.27
2018-11-13T05:31:01.857Z,1.77
2018-11-13T05:33:30.569Z,2.37
2018-11-13T05:35:59.257Z,1.60
2018-11-13T05:38:27.953Z,1.17
2018-11-13T05:40:56.647Z,2.10
2018-11-13T05:43:25.346Z,1.57
2018-11-13T05:45:54.061Z,1.20
2018-11-13T05:48:22.758Z,1.20
2018-11-13T05:50:51.439Z,1.43
2018-11-13T05:53:20.143Z,1.33
2018-11-13T05:55:48.830Z,1.47
2018-11-13T05:58:17.517Z,4.67
2018-11-13T06:00:46.237Z,1.07
2018-11-13T06:03:14.933Z,1.60
2018-11-13T06:05:43.637Z,4.37
2018-11-13T06:08:12.334Z,2.30
2018-11-13T06:10:41.042Z,1.40
2018-11-13T06:13:09.734Z,2.40
2018-11-13T06:15:38.421Z,1.30
2018-11-13T06:18:07.143Z,1.37
2018-11-13T06:20:35.833Z,2.77
2018-11-13T06:23:04.752Z,4.83
2018-11-13T06:25:33.412Z,2.63
2018-11-13T06:28:02.094Z,3.33
2018-11-13T06:30:30.801Z,3.20
2018-11-13T06:32:59.489Z,2.60
2018-11-13T06:35:28.189Z,4.30
2018-11-13T06:38:02.931Z,3.90
2018-11-13T06:40:31.618Z,2.50
2018-11-13T06:43:01.313Z,3.67
2018-11-13T06:45:30.014Z,2.77
2018-11-13T06:47:58.702Z,3.13
2018-11-13T06:50:35.226Z,3.43
2018-11-13T06:53:03.906Z,2.70
2018-11-13T06:55:34.616Z,3.40
2018-11-13T06:58:03.674Z,2.87
2018-11-13T07:00:32.494Z,3.53
2018-11-13T07:03:05.150Z,4.17
2018-11-13T07:05:33.848Z,2.90
2018-11-13T07:08:02.542Z,4.77
2018-11-13T07:10:44.745Z,4.47
2018-11-13T07:13:13.305Z,4.90
2018-11-13T07:15:42.317Z,4.40
2018-11-13T07:18:11.067Z,5.47
2018-11-13T07:20:39.725Z,6.00
2018-11-13T07:23:08.542Z,5.90
2018-11-13T07:25:37.271Z,6.03
2018-11-13T07:28:05.959Z,5.20
2018-11-13T07:33:31.058Z,5.50
2018-11-13T07:35:59.711Z,4.27
2018-11-13T07:38:28.402Z,6.57
2018-11-13T07:40:57.157Z,3.90
2018-11-13T07:43:39.069Z,3.13
2018-11-13T07:49:20.278Z,3.40
2018-11-13T07:51:48.994Z,2.80
2018-11-13T07:54:17.686Z,4.30
2018-11-13T07:56:46.393Z,3.37
2018-11-13T08:13:43.210Z,4.90
2018-11-13T08:16:11.898Z,3.67
2018-11-13T08:18:40.623Z,3.30
2018-11-13T08:21:09.293Z,2.20
2018-11-13T08:23:37.973Z,2.67
2018-11-13T08:26:07.195Z,2.53
2018-11-13T08:28:35.911Z,2.50
2018-11-13T08:31:09.482Z,3.53
2018-11-13T08:33:38.185Z,4.60
2018-11-13T08:36:07.411Z,2.70
2018-11-13T08:38:36.117Z,3.57
2018-11-13T08:44:03.068Z,2.37
2018-11-13T08:46:33.741Z,3.33
2018-11-13T08:49:02.453Z,2.60
2018-11-13T08:51:31.150Z,3.63
2018-11-13T08:53:59.845Z,2.80
2018-11-13T08:56:28.533Z,1.90
2018-11-13T08:58:57.283Z,2.10
2018-11-13T09:01:26.094Z,2.97
2018-11-13T09:03:55.034Z,2.20
2018-11-13T09:06:47.080Z,2.13
2018-11-13T09:09:15.786Z,1.60
2018-11-13T09:11:45.660Z,2.50
2018-11-13T09:14:14.261Z,1.80
2018-11-13T09:16:42.982Z,1.27
2018-11-13T09:19:11.759Z,1.60
2018-11-13T09:21:40.355Z,1.03
2018-11-13T09:24:09.049Z,0.60
2018-11-13T09:26:37.733Z,0.80
2018-11-13T09:29:06.413Z,0.80
2018-11-13T09:31:35.151Z,3.00
2018-11-13T09:34:04.141Z,1.37
2018-11-13T09:36:32.814Z,1.23
2018-11-13T09:39:01.501Z,1.23
2018-11-13T09:41:30.201Z,1.37
2018-11-13T09:44:08.857Z,1.90
2018-11-13T09:46:37.777Z,1.97
2018-11-13T09:49:06.649Z,0.70
2018-11-13T09:51:35.318Z,0.70
2018-11-13T09:54:08.316Z,0.60
2018-11-13T09:56:37.185Z,1.20
2018-11-13T09:59:05.879Z,1.80
2018-11-13T10:01:34.911Z,0.60
2018-11-13T10:04:14.867Z,2.17
2018-11-13T10:06:42.924Z,2.00
2018-11-13T10:09:12.796Z,1.07
2018-11-13T10:11:43.019Z,0.77
2018-11-13T10:14:12.110Z,0.77
2018-11-13T10:16:41.406Z,0.70
2018-11-13T10:19:11.026Z,0.80
2018-11-13T10:21:39.706Z,0.80
2018-11-13T10:24:09.097Z,2.03
2018-11-13T10:26:37.848Z,0.53
2018-11-13T10:29:06.596Z,1.03
2018-11-13T10:31:35.281Z,0.77
2018-11-13T10:34:03.973Z,0.70
2018-11-13T10:36:32.666Z,1.60
2018-11-13T10:39:08.224Z,0.30
2018-11-13T10:41:36.978Z,0.53
2018-11-13T10:44:05.762Z,0.50
2018-11-13T10:46:34.434Z,0.40
2018-11-13T10:49:03.213Z,0.70
2018-11-13T10:51:31.838Z,0.30
2018-11-13T10:54:00.534Z,0.97
2018-11-13T10:56:29.304Z,0.90
2018-11-13T10:58:57.985Z,0.57
2018-11-13T11:04:23.436Z,0.40
2018-11-13T11:06:52.113Z,0.53
2018-11-13T11:09:20.866Z,0.23
2018-11-13T11:12:09.867Z,0.50
2018-11-13T11:14:38.549Z,0.70
2018-11-13T11:17:07.504Z,0.90
2018-11-13T11:19:55.094Z,0.43
2018-11-13T11:22:23.782Z,0.77
2018-11-13T11:25:13.858Z,0.50
2018-11-13T11:27:42.528Z,0.83
2018-11-13T11:30:13.421Z,0.50
2018-11-13T11:32:42.401Z,0.70
2018-11-13T11:35:11.389Z,0.30
2018-11-13T11:37:40.694Z,0.40
2018-11-13T11:40:09.986Z,0.87
2018-11-13T11:42:38.977Z,0.60
2018-11-13T11:45:10.230Z,1.20
2018-11-13T11:47:40.086Z,0.40
2018-11-13T11:50:09.841Z,3.90
2018-11-13T11:52:38.740Z,0.80
2018-11-13T11:55:07.942Z,0.60
2018-11-13T11:57:36.638Z,2.30
2018-11-13T12:00:08.526Z,1.17
2018-11-13T12:02:54.945Z,1.00
2018-11-13T12:05:23.638Z,2.80
2018-11-13T12:08:03.213Z,0.80
2018-11-13T12:10:31.903Z,0.83
2018-11-13T12:13:00.586Z,0.50
2018-11-13T12:15:29.270Z,1.03
2018-11-13T12:17:57.971Z,0.63
2018-11-13T12:20:26.665Z,2.53
2018-11-13T12:22:55.460Z,1.73
2018-11-13T12:25:24.110Z,0.60
2018-11-13T12:27:52.818Z,0.77
2018-11-13T12:30:22.893Z,1.47
2018-11-13T12:32:52.094Z,0.60
2018-11-13T12:35:21.709Z,1.07
2018-11-13T12:37:50.406Z,0.50
2018-11-13T12:40:20.398Z,0.73
2018-11-13T12:42:49.508Z,1.07
2018-11-13T12:45:18.641Z,1.47
2018-11-13T12:47:47.349Z,1.23
2018-11-13T12:50:17.199Z,0.80
2018-11-13T12:52:45.881Z,0.73
2018-11-13T12:58:12.342Z,0.90
2018-11-13T13:00:41.034Z,1.70
2018-11-13T13:03:09.765Z,3.50
2018-11-13T13:05:38.421Z,0.93
2018-11-13T13:08:07.106Z,1.27
2018-11-13T13:10:35.813Z,0.70
2018-11-13T13:13:04.522Z,1.47
2018-11-13T13:15:33.221Z,0.80
2018-11-13T13:18:01.916Z,2.20
2018-11-13T13:20:30.602Z,1.20
2018-11-13T13:22:59.446Z,0.77
2018-11-13T13:25:28.151Z,2.27
2018-11-13T13:27:56.842Z,1.10
2018-11-13T13:30:26.263Z,0.73
2018-11-13T13:32:57.062Z,1.47
2018-11-13T13:35:59.765Z,1.27
2018-11-13T13:38:28.614Z,1.27
2018-11-13T13:40:58.463Z,2.13
2018-11-13T13:43:28.190Z,0.67
2018-11-13T13:45:56.886Z,1.90
2018-11-13T13:48:25.737Z,2.37
2018-11-13T13:50:54.549Z,0.80
2018-11-13T13:53:24.245Z,3.13
2018-11-13T13:55:53.141Z,0.87
2018-11-13T13:58:22.662Z,2.43
2018-11-13T14:03:50.354Z,1.33
2018-11-13T14:06:19.041Z,1.90
2018-11-13T14:08:47.741Z,2.00
2018-11-13T14:11:16.446Z,1.00
2018-11-13T14:13:54.389Z,3.00
2018-11-13T14:16:23.069Z,5.13
2018-11-13T14:18:51.783Z,1.40
2018-11-13T14:21:20.538Z,3.37
2018-11-13T14:23:49.222Z,0.90
2018-11-13T14:26:17.917Z,3.00
2018-11-13T14:28:46.915Z,2.40
2018-11-13T14:31:15.610Z,1.03
2018-11-13T14:33:44.295Z,1.97
2018-11-13T14:41:55.538Z,1.17
2018-11-13T14:44:24.265Z,0.57
2018-11-13T14:46:52.957Z,2.57
2018-11-13T14:49:21.650Z,0.97
2018-11-13T14:51:50.353Z,1.57
2018-11-13T14:54:19.052Z,2.40
2018-11-13T14:56:47.737Z,6.77
2018-11-13T14:59:16.430Z,1.40
2018-11-13T15:01:55.938Z,1.63
2018-11-13T15:04:24.658Z,2.07
2018-11-13T15:06:53.347Z,2.97
2018-11-13T15:09:22.054Z,2.23
2018-11-13T15:12:06.154Z,2.53
2018-11-13T15:14:34.865Z,1.40
2018-11-13T15:17:03.545Z,3.67
2018-11-13T15:19:32.262Z,2.67
2018-11-13T15:22:00.974Z,2.50
2018-11-13T15:24:29.710Z,1.27
2018-11-13T15:26:58.350Z,2.87
2018-11-13T15:29:27.062Z,2.10
2018-11-13T15:31:55.745Z,3.73
2018-11-13T15:34:24.494Z,2.03
2018-11-13T15:36:53.195Z,1.10
2018-11-13T15:39:21.914Z,1.73
2018-11-13T15:41:50.706Z,3.77
2018-11-13T15:44:19.490Z,1.67
2018-11-13T15:46:48.154Z,3.53
2018-11-13T15:49:16.877Z,3.07
2018-11-13T15:51:45.615Z,1.77
2018-11-13T15:54:14.255Z,2.30
2018-11-13T15:56:42.961Z,3.27
2018-11-13T15:59:16.702Z,2.47
2018-11-13T16:01:45.422Z,1.63
2018-11-13T16:04:14.117Z,1.07
2018-11-13T16:06:42.821Z,3.70
2018-11-13T16:09:11.531Z,3.77
2018-11-13T16:11:40.218Z,3.87
2018-11-13T16:14:08.913Z,3.83
2018-11-13T16:16:37.654Z,2.87
2018-11-13T16:19:06.337Z,5.63
2018-11-13T16:21:35.064Z,3.90
2018-11-13T16:24:03.798Z,3.37
2018-11-13T16:26:32.477Z,2.13
2018-11-13T16:29:01.204Z,2.80
2018-11-13T16:31:30.057Z,2.30
2018-11-13T16:33:58.729Z,3.23
2018-11-13T16:36:27.650Z,2.80
2018-11-13T16:38:56.141Z,5.57
2018-11-13T16:41:24.861Z,4.80
2018-11-13T16:43:53.517Z,3.93
2018-11-13T16:46:22.281Z,2.90
2018-11-13T16:48:50.957Z,3.13
2018-11-13T16:51:29.497Z,3.87
2018-11-13T16:54:02.594Z,5.00
2018-11-13T16:56:34.110Z,1.77
2018-11-13T16:59:02.797Z,3.00
2018-11-13T17:01:31.502Z,3.00
2018-11-13T17:04:00.401Z,1.87
2018-11-13T17:06:29.116Z,3.77
2018-11-13T17:08:57.792Z,2.23
2018-11-13T17:11:26.529Z,3.37
2018-11-13T17:14:00.211Z,2.90
2018-11-13T17:16:28.955Z,3.50
2018-11-13T17:18:57.585Z,2.47
2018-11-13T17:21:26.275Z,2.20
2018-11-13T17:23:54.978Z,2.40
2018-11-13T17:26:23.666Z,3.23
2018-11-13T17:28:52.354Z,1.67
2018-11-13T17:31:21.129Z,2.23
2018-11-13T17:33:49.781Z,3.63
2018-11-13T17:39:31.145Z,4.30
2018-11-13T17:41:59.850Z,3.47
2018-11-13T17:44:30.384Z,4.53
2018-11-13T17:46:57.263Z,7.13
2018-11-13T17:49:25.945Z,3.53
2018-11-13T17:54:51.966Z,4.67
2018-11-13T17:57:20.662Z,3.60
2018-11-13T17:59:50.422Z,3.00
2018-11-13T18:02:23.236Z,2.60
2018-11-13T18:04:51.943Z,4.17
2018-11-13T18:07:20.681Z,3.17
2018-11-13T18:09:49.340Z,3.90
2018-11-13T18:12:18.032Z,3.70
2018-11-13T18:14:46.793Z,3.27
2018-11-13T18:17:15.413Z,4.87
2018-11-13T18:19:44.119Z,5.30
2018-11-13T18:22:12.913Z,2.70
2018-11-13T18:24:41.609Z,4.27
2018-11-13T18:27:10.294Z,9.10
2018-11-13T18:29:38.985Z,4.00
2018-11-13T18:32:07.702Z,1.93
2018-11-13T18:34:36.394Z,3.07
2018-11-13T18:37:05.559Z,3.13
2018-11-13T18:39:34.265Z,3.77
2018-11-13T18:42:02.978Z,6.77
2018-11-13T18:44:38.493Z,6.40
2018-11-13T18:47:07.209Z,6.90
2018-11-13T18:49:35.894Z,4.97
2018-11-13T18:52:04.801Z,5.27
2018-11-13T18:54:33.515Z,7.00
2018-11-13T18:57:02.206Z,5.03
2018-11-13T18:59:31.087Z,3.93
2018-11-13T19:02:10.561Z,4.00
2018-11-13T19:04:39.282Z,2.87
2018-11-13T19:07:08.562Z,5.30
2018-11-13T19:09:37.250Z,4.93
2018-11-13T19:12:06.317Z,5.70
2018-11-13T19:14:35.346Z,4.90
2018-11-13T19:17:04.157Z,8.60
2018-11-13T19:19:32.799Z,5.50
2018-11-13T19:22:05.114Z,8.60
2018-11-13T19:24:45.888Z,2.83
2018-11-13T19:27:15.085Z,3.67
2018-11-13T19:29:43.931Z,4.40
2018-11-13T19:32:12.634Z,2.20
2018-11-13T19:34:41.314Z,3.60
2018-11-13T19:37:10.106Z,4.67
2018-11-13T19:39:38.845Z,8.80
2018-11-13T19:42:07.254Z,6.33
2018-11-13T19:44:36.309Z,5.10
2018-11-13T19:47:04.736Z,7.47
2018-11-13T19:49:33.842Z,5.70
2018-11-13T19:52:02.128Z,6.30
2018-11-13T19:54:30.854Z,5.60
2018-11-13T19:56:59.575Z,5.13
2018-11-13T19:59:28.281Z,3.40
2018-11-13T20:01:56.978Z,2.40
2018-11-13T20:07:16.838Z,5.10
2018-11-13T20:09:45.574Z,7.83
2018-11-13T20:12:14.257Z,6.73
2018-11-13T20:14:42.954Z,5.67
2018-11-13T20:17:11.670Z,8.20
2018-11-13T20:19:40.606Z,6.83
2018-11-13T20:22:09.306Z,6.77
2018-11-13T20:24:57.154Z,6.13
2018-11-13T20:27:25.878Z,3.47
2018-11-13T20:29:54.589Z,5.13
2018-11-13T20:32:23.274Z,4.47
2018-11-13T20:34:52.006Z,3.73
2018-11-13T20:37:20.749Z,4.43
2018-11-13T20:40:01.246Z,3.60
2018-11-13T20:42:29.967Z,4.77
2018-11-13T20:44:58.713Z,10.47
2018-11-13T20:47:29.618Z,21.57
2018-11-13T20:49:59.037Z,24.27
2018-11-13T20:52:28.187Z,16.77
2018-11-13T20:54:57.498Z,8.50
2018-11-13T20:57:26.210Z,5.37
2018-11-13T20:59:54.900Z,5.27
2018-11-13T21:02:23.642Z,6.30
2018-11-13T21:04:52.277Z,6.80
2018-11-13T21:07:25.997Z,6.77
2018-11-13T21:09:54.714Z,4.80
2018-11-13T21:12:23.405Z,5.27
2018-11-13T21:14:52.242Z,5.23
2018-11-13T21:17:21.117Z,5.57
2018-11-13T21:19:49.832Z,4.20
2018-11-13T21:22:18.401Z,3.67
2018-11-13T21:24:47.093Z,4.87
2018-11-13T21:27:15.822Z,4.07
2018-11-13T21:29:52.456Z,5.87
2018-11-13T21:32:21.122Z,5.50
2018-11-13T21:34:49.806Z,3.43
2018-11-13T21:37:18.495Z,5.93
2018-11-13T21:39:47.190Z,5.13
2018-11-13T21:42:15.881Z,3.03
2018-11-13T21:44:44.599Z,4.83
2018-11-13T21:47:13.290Z,6.17
2018-11-13T21:49:41.976Z,7.83
2018-11-13T21:52:10.669Z,5.10
2018-11-13T21:54:39.357Z,10.90
2018-11-13T21:57:08.046Z,11.00
2018-11-13T21:59:36.738Z,6.27
2018-11-13T22:02:05.426Z,6.17
2018-11-13T22:04:45.438Z,9.40
2018-11-13T22:07:14.074Z,4.20
2018-11-13T22:09:43.039Z,6.20
2018-11-13T22:12:11.748Z,5.23
2018-11-13T22:14:40.439Z,5.47
2018-11-13T22:17:09.119Z,7.03
2018-11-13T22:19:37.906Z,5.73
2018-11-13T22:22:06.650Z,8.30
2018-11-13T22:24:35.337Z,5.97
2018-11-13T22:27:04.084Z,9.50
2018-11-13T22:29:45.081Z,8.23
2018-11-13T22:32:13.790Z,8.50
2018-11-13T22:34:42.474Z,12.57
2018-11-13T22:37:11.153Z,9.73
2018-11-13T22:39:39.893Z,15.27
2018-11-13T22:42:08.550Z,8.07
2018-11-13T22:44:37.257Z,6.13
2018-11-13T22:47:05.986Z,4.53
2018-11-13T22:49:39.666Z,5.27
2018-11-13T22:52:08.354Z,4.67
2018-11-13T22:54:37.068Z,3.93
2018-11-13T22:57:05.746Z,5.30
2018-11-13T22:59:34.440Z,8.17
2018-11-13T23:02:03.162Z,6.97
2018-11-13T23:04:31.856Z,6.43
2018-11-13T23:07:00.545Z,6.50
2018-11-13T23:09:44.120Z,6.73
2018-11-13T23:12:12.798Z,5.90
2018-11-13T23:14:41.490Z,4.53
2018-11-13T23:17:10.178Z,6.37
2018-11-13T23:19:38.866Z,5.93
2018-11-13T23:22:07.557Z,7.70
2018-11-13T23:24:36.248Z,6.93
2018-11-13T23:27:05.091Z,6.40
2018-11-13T23:29:33.761Z,5.23
2018-11-13T23:32:02.781Z,5.23
2018-11-13T23:34:31.242Z,7.00
2018-11-13T23:36:59.875Z,6.23
2018-11-13T23:39:28.563Z,7.30
2018-11-13T23:41:57.264Z,8.43
2018-11-13T23:44:26.055Z,9.70
2018-11-13T23:46:54.698Z,6.40
2018-11-13T23:49:23.431Z,7.07
2018-11-13T23:51:52.088Z,4.97
2018-11-13T23:54:20.801Z,10.57
2018-11-13T23:56:49.490Z,9.60
2018-11-13T23:59:18.174Z,8.23
